Time;durP1;ratioP1;P1;durP2;ratioP2;P2;SDS_P1;SDS_P2;PMS_P1;PMS_P2;Temp;Humidity;BMP_temperature;BMP_pressure;BME280_temperature;BME280_humidity;BME280_pressure;Samples;Min_cycle;Max_cycle;Signal;HPM_P1;HPM_P2
2022/03/02 00:03:44;;;;;;;14.18;8.02;;;3.40;99.90;;;;;;12533260;28;20502;-36
2022/03/02 00:09:46;;;;;;;13.00;7.22;;;3.30;99.90;;;;;;12536192;28;20044;-40
2022/03/02 00:15:48;;;;;;;12.30;7.47;;;3.00;99.90;;;;;;12533115;28;20504;-37
2022/03/02 00:21:50;;;;;;;11.38;6.90;;;2.90;99.90;;;;;;12535258;28;20049;-36
2022/03/02 00:27:52;;;;;;;13.40;6.38;;;3.10;99.90;;;;;;12536809;28;20057;-40
2022/03/02 00:33:54;;;;;;;14.27;6.75;;;3.20;99.90;;;;;;12533621;28;20163;-36
2022/03/02 00:39:57;;;;;;;13.20;7.20;;;3.30;99.90;;;;;;12535680;28;20139;-40
2022/03/02 00:45:58;;;;;;;15.10;7.65;;;3.40;99.90;;;;;;12533586;28;20439;-37
2022/03/02 00:52:02;;;;;;;16.23;8.38;;;3.50;99.90;;;;;;12533567;28;20199;-40
2022/03/02 00:58:05;;;;;;;14.33;8.40;;;3.40;99.90;;;;;;12535600;28;20044;-40
2022/03/02 01:04:08;;;;;;;15.02;8.15;;;3.30;99.90;;;;;;12528804;28;20041;-40
2022/03/02 01:10:09;;;;;;;15.68;8.35;;;3.10;99.90;;;;;;12531798;28;20093;-40
2022/03/02 01:16:11;;;;;;;17.15;8.90;;;3.10;99.90;;;;;;12533000;28;20041;-40
2022/03/02 01:22:14;;;;;;;15.60;8.35;;;2.90;99.90;;;;;;12531587;28;20140;-40
2022/03/02 01:28:16;;;;;;;16.38;8.57;;;2.80;99.90;;;;;;12531278;28;20057;-36
2022/03/02 01:34:18;;;;;;;15.27;8.65;;;2.80;99.90;;;;;;12531344;28;20122;-40
2022/03/02 01:40:20;;;;;;;16.55;8.40;;;2.90;99.90;;;;;;12532651;28;20064;-36
2022/03/02 01:46:23;;;;;;;16.40;8.73;;;3.00;99.90;;;;;;12532182;28;20467;-37
2022/03/02 01:52:26;;;;;;;13.98;7.55;;;3.00;99.90;;;;;;12530619;28;20535;-40
2022/03/02 01:58:29;;;;;;;12.98;7.97;;;3.20;99.90;;;;;;12533860;28;20137;-39
2022/03/02 02:04:30;;;;;;;14.52;8.23;;;3.10;99.90;;;;;;12528910;28;20049;-41
2022/03/02 02:10:32;;;;;;;15.75;8.27;;;3.20;99.90;;;;;;12529186;28;20734;-42
2022/03/02 02:16:34;;;;;;;15.60;8.27;;;3.10;99.90;;;;;;12529288;28;20052;-40
2022/03/02 02:22:47;;;;;;;16.17;8.27;;;3.00;99.90;;;;;;12531630;28;20056;-36
2022/03/02 02:28:50;;;;;;;19.20;8.57;;;2.80;99.90;;;;;;12529456;28;20048;-36
2022/03/02 02:34:52;;;;;;;13.50;7.93;;;2.80;99.90;;;;;;12529688;28;20144;-40
2022/03/02 02:40:54;;;;;;;11.82;7.20;;;2.80;99.90;;;;;;12530199;28;20083;-38
2022/03/02 02:46:56;;;;;;;12.75;7.07;;;2.60;99.90;;;;;;12529226;28;20044;-40
2022/03/02 02:53:01;;;;;;;15.20;7.43;;;2.70;99.90;;;;;;12530009;28;20072;-40
2022/03/02 02:59:03;;;;;;;13.05;7.38;;;2.70;99.90;;;;;;12536753;28;20049;-40
2022/03/02 03:05:09;;;;;;;16.40;7.93;;;2.60;99.90;;;;;;12535676;28;20045;-40
2022/03/02 03:11:11;;;;;;;14.50;7.80;;;2.50;99.90;;;;;;12541441;28;20102;-36
2022/03/02 03:17:13;;;;;;;19.25;7.90;;;2.50;99.90;;;;;;12539561;28;20489;-36
2022/03/02 03:23:16;;;;;;;14.38;7.43;;;2.50;99.90;;;;;;12535603;28;20454;-39
2022/03/02 03:29:17;;;;;;;10.60;6.88;;;2.40;99.90;;;;;;12531785;28;20155;-36
2022/03/02 03:35:21;;;;;;;13.15;6.75;;;2.60;99.90;;;;;;12536908;28;20115;-36
2022/03/02 03:41:23;;;;;;;12.13;7.00;;;2.60;99.90;;;;;;12533992;28;20132;-36
2022/03/02 03:47:25;;;;;;;14.40;7.03;;;2.70;99.90;;;;;;12535046;28;20049;-40
2022/03/02 03:53:27;;;;;;;12.75;6.75;;;2.80;99.90;;;;;;12536887;28;20522;-40
2022/03/02 03:59:29;;;;;;;13.98;7.03;;;2.70;99.90;;;;;;12539117;28;20118;-36
2022/03/02 04:05:31;;;;;;;11.65;6.20;;;2.80;99.90;;;;;;12533679;28;20847;-39
2022/03/02 04:11:33;;;;;;;13.88;6.60;;;2.70;99.90;;;;;;12535153;28;20091;-37
2022/03/02 04:17:35;;;;;;;12.73;6.22;;;2.80;99.90;;;;;;12536715;28;20575;-36
2022/03/02 04:23:37;;;;;;;10.20;6.30;;;2.90;99.90;;;;;;12531183;28;20457;-36
2022/03/02 04:29:39;;;;;;;14.55;6.53;;;2.80;99.90;;;;;;12533703;28;20370;-41
2022/03/02 04:35:42;;;;;;;12.10;6.50;;;2.60;99.90;;;;;;12531514;28;20459;-40
2022/03/02 04:41:43;;;;;;;12.50;6.80;;;2.30;99.90;;;;;;12538830;28;20494;-36
2022/03/02 04:47:45;;;;;;;16.27;7.32;;;2.20;99.90;;;;;;12536313;28;20056;-37
2022/03/02 04:53:50;;;;;;;16.30;8.25;;;2.30;99.90;;;;;;12535538;28;20106;-36
2022/03/02 04:59:51;;;;;;;;;;;2.10;99.90;;;;;;12534113;28;20048;-36
2022/03/02 05:05:54;;;;;;;13.63;7.95;;;2.20;99.90;;;;;;12529017;28;20353;-36
2022/03/02 05:11:55;;;;;;;16.92;8.52;;;2.10;99.90;;;;;;12533673;28;20102;-36
2022/03/02 05:17:58;;;;;;;16.30;7.82;;;2.20;99.90;;;;;;12532181;28;20435;-36
2022/03/02 05:24:00;;;;;;;13.20;7.25;;;2.30;99.90;;;;;;12531066;28;20043;-36
2022/03/02 05:30:03;;;;;;;13.23;7.78;;;2.30;99.90;;;;;;12532320;28;20408;-36
2022/03/02 05:36:05;;;;;;;18.98;8.50;;;2.10;99.90;;;;;;12534761;28;20056;-39
2022/03/02 05:42:08;;;;;;;16.13;8.50;;;2.00;99.90;;;;;;12532935;28;20390;-36
2022/03/02 05:48:09;;;;;;;16.08;9.05;;;2.10;99.90;;;;;;12532891;28;20053;-39
2022/03/02 05:54:12;;;;;;;18.13;8.65;;;1.90;99.90;;;;;;12534003;28;20044;-36
2022/03/02 06:00:14;;;;;;;13.65;7.40;;;1.80;99.90;;;;;;12532805;28;20048;-36
2022/03/02 06:06:16;;;;;;;12.10;6.75;;;1.90;99.90;;;;;;12532077;28;20106;-39
2022/03/02 06:12:19;;;;;;;13.80;7.15;;;1.90;99.90;;;;;;12527499;28;20804;-40
2022/03/02 06:18:21;;;;;;;16.13;7.45;;;1.90;99.90;;;;;;12532237;28;20079;-36
2022/03/02 06:24:23;;;;;;;12.25;7.07;;;1.90;99.90;;;;;;12526002;28;20445;-40
2022/03/02 06:30:25;;;;;;;18.20;7.60;;;1.80;99.90;;;;;;12535315;28;20052;-39
2022/03/02 06:36:27;;;;;;;15.75;7.82;;;1.80;99.90;;;;;;12535887;28;20058;-37
2022/03/02 06:42:39;;;;;;;14.30;7.90;;;1.70;99.90;;;;;;12538418;28;20611;-40
2022/03/02 06:48:52;;;;;;;16.70;7.70;;;1.90;99.90;;;;;;12540840;28;20051;-40
2022/03/02 06:54:57;;;;;;;14.93;7.75;;;1.80;99.90;;;;;;12539905;28;20109;-40
2022/03/02 07:01:00;;;;;;;13.50;7.78;;;1.70;99.90;;;;;;12542006;28;20049;-36
2022/03/02 07:07:03;;;;;;;13.88;6.90;;;2.00;99.90;;;;;;12544933;28;20159;-40
2022/03/02 07:13:06;;;;;;;13.98;7.45;;;2.10;99.90;;;;;;12538625;28;20044;-39
2022/03/02 07:19:08;;;;;;;12.65;6.95;;;2.10;99.90;;;;;;12510251;28;20059;-39
2022/03/02 07:25:18;;;;;;;17.02;7.50;;;2.40;99.90;;;;;;12534811;28;20101;-38
2022/03/02 07:31:21;;;;;;;14.75;7.47;;;2.60;99.90;;;;;;12542355;28;20053;-39
2022/03/02 07:37:39;;;;;;;15.13;7.65;;;2.80;99.90;;;;;;12538981;28;20049;-40
2022/03/02 07:43:41;;;;;;;13.55;8.23;;;3.10;99.90;;;;;;12538879;28;20041;-36
2022/03/02 07:49:44;;;;;;;13.68;8.25;;;3.40;99.90;;;;;;12532503;28;20393;-40
2022/03/02 07:55:47;;;;;;;14.27;7.82;;;3.50;99.90;;;;;;12538659;28;20052;-40
2022/03/02 08:01:50;;;;;;;14.98;8.23;;;3.80;99.90;;;;;;12531346;28;20048;-36
2022/03/02 08:07:52;;;;;;;15.02;7.93;;;3.80;99.90;;;;;;12535472;28;20049;-37
2022/03/02 08:13:54;;;;;;;15.15;8.63;;;4.30;99.90;;;;;;12535923;28;20044;-36
2022/03/02 08:19:57;;;;;;;13.65;7.65;;;4.60;99.90;;;;;;12530144;28;20126;-37
2022/03/02 08:26:00;;;;;;;12.68;7.32;;;4.80;99.90;;;;;;12531380;28;20525;-36
2022/03/02 08:32:07;;;;;;;13.15;6.85;;;5.00;99.90;;;;;;12535208;28;20052;-40
2022/03/02 08:38:12;;;;;;;15.90;7.45;;;5.10;99.90;;;;;;12530738;28;20045;-36
2022/03/02 08:44:14;;;;;;;11.13;6.47;;;5.40;99.90;;;;;;12531181;28;20045;-41
2022/03/02 08:50:16;;;;;;;13.10;6.82;;;5.70;99.90;;;;;;12531824;28;20045;-37
2022/03/02 08:56:19;;;;;;;9.80;5.95;;;5.60;99.90;;;;;;12528702;28;23526;-40
2022/03/02 09:02:24;;;;;;;9.73;5.93;;;5.60;99.90;;;;;;12528494;28;20082;-37
2022/03/02 09:08:26;;;;;;;8.93;5.72;;;5.90;99.90;;;;;;12532959;28;20056;-40
2022/03/02 09:14:28;;;;;;;9.63;5.30;;;6.00;99.90;;;;;;12535088;28;20079;-42
2022/03/02 09:20:31;;;;;;;9.65;5.45;;;6.10;99.90;;;;;;12532562;28;20045;-37
2022/03/02 09:26:34;;;;;;;11.02;6.35;;;6.40;99.90;;;;;;12534450;28;20169;-41
2022/03/02 09:32:40;;;;;;;11.40;7.10;;;6.60;99.90;;;;;;12530988;28;20136;-40
2022/03/02 09:38:42;;;;;;;13.27;7.20;;;6.50;99.90;;;;;;12536388;28;20077;-37
2022/03/02 09:44:47;;;;;;;16.67;7.53;;;6.40;99.90;;;;;;12529337;28;20469;-40
2022/03/02 09:50:51;;;;;;;13.32;7.45;;;6.60;99.90;;;;;;12532157;28;20543;-37
2022/03/02 09:56:55;;;;;;;13.35;7.18;;;6.70;99.90;;;;;;12528115;28;20730;-37
2022/03/02 10:03:00;;;;;;;14.77;7.45;;;6.80;99.90;;;;;;12529842;28;20143;-36
2022/03/02 10:09:02;;;;;;;10.95;6.38;;;6.90;99.90;;;;;;12537365;28;20051;-37
2022/03/02 10:15:08;;;;;;;;;;;7.20;99.90;;;;;;12538533;28;20049;-40
2022/03/02 10:21:10;;;;;;;13.90;7.00;;;7.70;99.90;;;;;;12537278;28;20023;-41
2022/03/02 10:27:41;;;;;;;12.95;6.65;;;7.80;99.90;;;;;;12542927;28;20131;-37
2022/03/02 10:33:51;;;;;;;9.68;6.32;;;8.10;99.90;;;;;;12538860;28;20088;-40
2022/03/02 10:40:09;;;;;;;9.02;5.82;;;8.20;99.90;;;;;;12538675;28;20926;-41
2022/03/02 10:46:15;;;;;;;10.13;6.20;;;8.40;99.90;;;;;;12536651;28;20049;-37
2022/03/02 10:52:21;;;;;;;12.63;6.25;;;8.90;99.90;;;;;;12542739;28;20049;-42
2022/03/02 10:58:27;;;;;;;10.40;5.10;;;9.10;99.90;;;;;;12533396;28;20055;-37
2022/03/02 11:04:30;;;;;;;7.45;4.55;;;9.20;99.90;;;;;;12534823;28;20119;-38
2022/03/02 11:10:37;;;;;;;8.98;5.53;;;9.00;99.90;;;;;;12537734;28;20106;-37
2022/03/02 11:16:39;;;;;;;8.40;5.03;;;9.20;99.90;;;;;;12538671;28;20059;-43
2022/03/02 11:23:00;;;;;;;8.13;5.10;;;9.00;99.90;;;;;;12543964;28;20495;-41
2022/03/02 11:29:12;;;;;;;10.00;5.47;;;9.10;99.90;;;;;;12539315;28;20642;-40
2022/03/02 11:35:19;;;;;;;9.18;5.30;;;9.20;99.90;;;;;;12534529;28;20070;-41
2022/03/02 11:41:33;;;;;;;7.63;5.40;;;9.60;99.90;;;;;;12533932;28;20512;-41
2022/03/02 11:47:43;;;;;;;12.80;5.95;;;9.90;99.90;;;;;;12520924;28;20049;-41
2022/03/02 11:53:50;;;;;;;9.82;5.60;;;9.90;99.90;;;;;;12536228;28;20097;-37
2022/03/02 12:00:16;;;;;;;8.07;5.03;;;10.10;99.90;;;;;;12540423;28;20057;-37
2022/03/02 12:06:18;;;;;;;7.10;4.38;;;10.70;99.90;;;;;;12541651;28;20098;-42
2022/03/02 12:12:21;;;;;;;8.80;5.22;;;10.20;99.90;;;;;;12536142;28;20084;-41
2022/03/02 12:18:23;;;;;;;7.47;5.10;;;10.80;99.90;;;;;;12535756;28;20071;-40
2022/03/02 12:24:33;;;;;;;7.90;4.40;;;10.40;99.90;;;;;;12532953;28;20060;-37
2022/03/02 12:30:36;;;;;;;8.60;5.15;;;10.80;99.90;;;;;;12533881;28;20082;-37
2022/03/02 12:36:40;;;;;;;7.88;5.22;;;10.80;99.90;;;;;;12533589;28;20543;-37
2022/03/02 12:42:44;;;;;;;8.10;4.07;;;10.50;99.90;;;;;;12536913;28;20072;-37
2022/03/02 12:48:50;;;;;;;11.23;5.27;;;10.90;99.90;;;;;;12535635;28;20045;-42
2022/03/02 12:55:03;;;;;;;8.98;5.80;;;11.40;99.90;;;;;;12535194;28;20106;-38
2022/03/02 13:01:05;;;;;;;7.45;5.10;;;11.20;99.90;;;;;;12538055;28;20102;-43
2022/03/02 13:07:18;;;;;;;7.15;5.03;;;10.90;99.90;;;;;;12539109;28;20055;-37
2022/03/02 13:13:33;;;;;;;5.95;3.83;;;11.00;99.90;;;;;;12533107;28;20427;-42
2022/03/02 13:19:43;;;;;;;;;;;10.70;99.90;;;;;;12534415;28;20439;-38
2022/03/02 13:26:00;;;;;;;7.75;4.20;;;10.40;99.90;;;;;;12533250;28;19931;-41
2022/03/02 13:32:05;;;;;;;7.68;4.45;;;10.50;99.90;;;;;;12532383;28;20151;-38
2022/03/02 13:38:11;;;;;;;7.38;4.28;;;10.50;99.90;;;;;;12533688;28;20410;-38
2022/03/02 13:44:38;;;;;;;6.35;4.55;;;10.20;99.90;;;;;;12529274;28;20436;-40
2022/03/02 13:51:00;;;;;;;7.85;4.90;;;10.30;99.90;;;;;;12530638;28;20049;-38
2022/03/02 13:57:03;;;;;;;7.30;4.70;;;10.20;99.90;;;;;;12539611;28;20053;-37
2022/03/02 14:03:05;;;;;;;7.55;5.30;;;10.00;99.90;;;;;;12534334;28;20859;-37
2022/03/02 14:09:11;;;;;;;8.77;5.97;;;9.90;99.90;;;;;;12533825;28;20041;-43
2022/03/02 14:15:13;;;;;;;8.93;5.78;;;9.80;99.90;;;;;;12535008;28;20044;-37
2022/03/02 14:21:17;;;;;;;;;;;9.80;99.90;;;;;;12532482;28;20098;-37
2022/03/02 14:27:27;;;;;;;9.00;6.00;;;9.50;99.90;;;;;;12528301;28;19931;-37
2022/03/02 14:33:31;;;;;;;9.88;6.18;;;9.40;99.90;;;;;;12531909;28;20579;-37
2022/03/02 14:39:33;;;;;;;9.23;5.47;;;9.20;99.90;;;;;;12533142;28;20053;-37
2022/03/02 14:45:38;;;;;;;8.23;4.82;;;9.00;99.90;;;;;;12535140;28;20052;-37
2022/03/02 14:51:45;;;;;;;9.10;5.43;;;8.70;99.90;;;;;;12535674;28;20068;-40
2022/03/02 14:57:47;;;;;;;9.13;5.65;;;8.60;99.90;;;;;;12542432;28;20694;-38
2022/03/02 15:03:56;;;;;;;7.80;5.10;;;8.50;99.90;;;;;;12543428;28;20079;-40
2022/03/02 15:10:16;;;;;;;11.07;5.60;;;8.50;99.90;;;;;;12532644;28;20076;-38
2022/03/02 15:16:18;;;;;;;11.02;6.88;;;8.30;99.90;;;;;;12531066;28;20065;-41
2022/03/02 15:22:24;;;;;;;10.93;7.07;;;8.30;99.90;;;;;;12542069;28;20056;-38
2022/03/02 15:28:26;;;;;;;11.90;7.03;;;8.30;99.90;;;;;;12538725;28;20067;-37
2022/03/02 15:34:31;;;;;;;12.38;7.15;;;8.20;99.90;;;;;;12538722;28;21438;-40
2022/03/02 15:40:35;;;;;;;16.55;7.93;;;8.20;99.90;;;;;;12536587;28;20605;-38
2022/03/02 15:46:46;;;;;;;13.73;7.80;;;8.00;99.90;;;;;;12537520;28;20053;-37
2022/03/02 15:52:56;;;;;;;12.75;7.88;;;8.10;99.90;;;;;;12533367;28;20134;-38
2022/03/02 15:59:08;;;;;;;15.45;8.18;;;8.10;99.90;;;;;;12536391;28;20053;-37
2022/03/02 16:05:13;;;;;;;17.25;9.13;;;8.00;99.90;;;;;;12534280;28;20044;-37
2022/03/02 16:11:22;;;;;;;18.73;9.52;;;7.90;99.90;;;;;;12537206;28;20556;-37
2022/03/02 16:17:42;;;;;;;13.93;8.80;;;7.60;99.90;;;;;;12531762;28;20452;-37
2022/03/02 16:23:46;;;;;;;15.82;8.30;;;7.40;99.90;;;;;;12535436;28;20048;-38
2022/03/02 16:29:52;;;;;;;16.63;8.87;;;7.20;99.90;;;;;;12486721;28;20453;-41
2022/03/02 16:35:54;;;;;;;13.32;8.10;;;7.10;99.90;;;;;;12485659;28;20314;-43
2022/03/02 16:42:16;;;;;;;13.93;7.55;;;6.90;99.90;;;;;;12485242;28;20046;-37
2022/03/02 16:48:20;;;;;;;15.63;9.07;;;6.70;99.90;;;;;;12482703;28;20182;-37
2022/03/02 16:54:22;;;;;;;17.67;9.40;;;6.50;99.90;;;;;;12485104;28;20053;-37
2022/03/02 17:00:37;;;;;;;18.05;9.07;;;6.30;99.90;;;;;;12479773;28;20536;-42
2022/03/02 17:06:48;;;;;;;16.08;9.48;;;6.20;99.90;;;;;;12479956;28;20053;-37
2022/03/02 17:12:50;;;;;;;14.93;9.15;;;6.00;99.90;;;;;;12470428;28;20048;-40
2022/03/02 17:18:52;;;;;;;23.48;11.75;;;5.90;99.90;;;;;;12483561;28;20064;-37
2022/03/02 17:24:56;;;;;;;20.33;12.57;;;5.80;99.90;;;;;;12479344;28;20048;-40
2022/03/02 17:30:58;;;;;;;29.38;15.07;;;5.70;99.90;;;;;;12510378;28;20447;-37
2022/03/02 17:37:00;;;;;;;21.73;10.88;;;5.60;99.90;;;;;;12517136;28;20052;-41
2022/03/02 17:43:02;;;;;;;23.75;11.65;;;5.50;99.90;;;;;;12535114;28;20052;-41
2022/03/02 17:49:04;;;;;;;22.50;12.40;;;5.40;99.90;;;;;;12535849;28;20827;-37
2022/03/02 17:55:06;;;;;;;22.58;13.27;;;5.30;99.90;;;;;;12523115;28;20045;-37
2022/03/02 18:01:10;;;;;;;21.58;12.35;;;5.20;99.90;;;;;;12533351;28;20045;-41
2022/03/02 18:07:12;;;;;;;32.33;18.53;;;5.00;99.90;;;;;;12532913;28;20468;-37
2022/03/02 18:13:14;;;;;;;21.27;12.18;;;4.80;99.90;;;;;;12525965;28;20049;-41
2022/03/02 18:19:16;;;;;;;24.83;12.90;;;4.60;99.90;;;;;;12532295;28;20455;-41
2022/03/02 18:25:18;;;;;;;21.58;11.73;;;4.50;99.90;;;;;;12510704;28;20068;-36
2022/03/02 18:31:24;;;;;;;17.17;9.57;;;4.40;99.90;;;;;;12539596;28;20143;-36
2022/03/02 18:37:28;;;;;;;25.20;11.98;;;4.30;99.90;;;;;;12538054;28;20115;-37
2022/03/02 18:43:30;;;;;;;19.55;10.95;;;4.10;99.90;;;;;;12539251;28;20456;-37
2022/03/02 18:49:33;;;;;;;19.13;10.38;;;4.00;99.90;;;;;;12540226;28;20056;-36
2022/03/02 18:55:35;;;;;;;19.52;10.38;;;4.00;99.90;;;;;;12531141;28;20048;-40
2022/03/02 19:01:37;;;;;;;19.48;9.48;;;4.20;99.90;;;;;;12534898;28;20044;-38
2022/03/02 19:07:41;;;;;;;16.85;9.93;;;4.10;99.90;;;;;;12540390;28;20049;-37
2022/03/02 19:13:43;;;;;;;19.40;10.88;;;4.00;99.90;;;;;;12533006;28;20097;-40
2022/03/02 19:19:45;;;;;;;17.25;9.30;;;3.90;99.90;;;;;;12537306;28;20051;-41
2022/03/02 19:25:49;;;;;;;20.40;9.98;;;3.70;99.90;;;;;;12534655;28;20191;-36
2022/03/02 19:31:53;;;;;;;17.05;9.57;;;3.60;99.90;;;;;;12517770;28;20080;-36
2022/03/02 19:37:55;;;;;;;19.98;10.52;;;3.60;99.90;;;;;;12533887;28;20048;-41
2022/03/02 19:43:57;;;;;;;18.45;9.68;;;3.50;99.90;;;;;;12533526;28;20488;-36
2022/03/02 19:50:04;;;;;;;18.85;9.88;;;3.30;99.90;;;;;;12537909;28;20227;-40
2022/03/02 19:56:07;;;;;;;20.50;9.02;;;3.40;99.90;;;;;;12540206;28;20037;-37
2022/03/02 20:02:09;;;;;;;18.33;9.57;;;3.40;99.90;;;;;;12534678;28;20102;-40
2022/03/02 20:08:14;;;;;;;18.85;10.25;;;3.40;99.90;;;;;;12534625;28;20079;-40
2022/03/02 20:14:16;;;;;;;21.63;9.88;;;3.40;99.90;;;;;;12536308;28;20048;-36
2022/03/02 20:20:18;;;;;;;16.15;8.65;;;3.30;99.90;;;;;;12533124;28;20054;-36
2022/03/02 20:26:20;;;;;;;20.42;9.05;;;3.40;99.90;;;;;;12534826;28;20099;-36
2022/03/02 20:32:22;;;;;;;18.70;9.88;;;3.40;99.90;;;;;;12532422;28;20180;-36
2022/03/02 20:38:27;;;;;;;18.02;10.57;;;3.40;99.90;;;;;;12530758;28;20064;-36
2022/03/02 20:44:29;;;;;;;24.77;11.98;;;3.30;99.90;;;;;;12532466;28;20570;-36
2022/03/02 20:50:31;;;;;;;19.05;10.20;;;3.30;99.90;;;;;;12531842;28;20053;-40
2022/03/02 20:56:33;;;;;;;17.88;9.48;;;3.20;99.90;;;;;;12534209;28;20382;-36
2022/03/02 21:02:35;;;;;;;17.17;9.52;;;3.10;99.90;;;;;;12534287;28;21095;-40
2022/03/02 21:08:37;;;;;;;17.45;8.85;;;3.10;99.90;;;;;;12531336;28;20607;-36
2022/03/02 21:14:39;;;;;;;19.17;10.02;;;3.00;99.90;;;;;;12536701;28;20049;-36
2022/03/02 21:20:41;;;;;;;20.10;10.52;;;2.90;99.90;;;;;;12528993;28;20052;-39
2022/03/02 21:26:46;;;;;;;19.88;11.13;;;2.80;99.90;;;;;;12530961;28;20059;-41
2022/03/02 21:32:48;;;;;;;17.48;9.77;;;2.60;99.90;;;;;;12511899;28;20105;-40
2022/03/02 21:38:50;;;;;;;19.42;10.10;;;2.40;99.90;;;;;;12510748;28;20531;-36
2022/03/02 21:44:52;;;;;;;19.75;11.10;;;2.40;99.90;;;;;;12533203;28;20373;-37
2022/03/02 21:50:54;;;;;;;21.83;10.60;;;2.30;99.90;;;;;;12529645;28;20489;-36
2022/03/02 21:56:56;;;;;;;17.40;9.55;;;2.10;99.90;;;;;;12532148;28;20081;-37
2022/03/02 22:03:00;;;;;;;19.83;10.10;;;2.30;99.90;;;;;;12532910;28;20051;-39
2022/03/02 22:09:02;;;;;;;17.10;9.60;;;2.30;99.90;;;;;;12537445;28;20057;-41
2022/03/02 22:15:06;;;;;;;20.17;9.57;;;2.50;99.90;;;;;;12540125;28;20048;-40
2022/03/02 22:21:09;;;;;;;20.88;10.65;;;2.50;99.90;;;;;;12537530;28;20516;-38
2022/03/02 22:27:11;;;;;;;22.35;9.85;;;2.50;99.90;;;;;;12523984;28;20109;-36
2022/03/02 22:33:13;;;;;;;19.13;9.50;;;2.50;99.90;;;;;;12537903;28;20063;-40
2022/03/02 22:39:15;;;;;;;18.77;10.43;;;2.50;99.90;;;;;;12540826;28;20052;-37
2022/03/02 22:45:17;;;;;;;21.90;9.57;;;2.40;99.90;;;;;;12540104;28;20098;-35
2022/03/02 22:51:19;;;;;;;20.20;9.85;;;2.30;99.90;;;;;;12538960;28;20063;-39
2022/03/02 22:57:21;;;;;;;16.05;8.93;;;2.30;99.90;;;;;;12543031;28;20321;-37
2022/03/02 23:03:23;;;;;;;18.60;9.02;;;2.30;99.90;;;;;;12539439;28;20057;-36
2022/03/02 23:15:46;;;;;;;24.42;10.23;;;2.30;99.90;;;;;;12540389;28;20529;-40
2022/03/02 23:21:48;;;;;;;18.55;10.05;;;2.00;99.90;;;;;;12536836;28;20049;-39
2022/03/02 23:27:53;;;;;;;19.80;9.82;;;2.00;99.90;;;;;;12537504;28;20056;-36
2022/03/02 23:33:55;;;;;;;17.80;9.60;;;1.90;99.90;;;;;;12537977;28;20846;-40
2022/03/02 23:39:58;;;;;;;16.67;9.20;;;1.80;99.90;;;;;;12538516;28;20497;-39
2022/03/02 23:46:00;;;;;;;17.95;8.80;;;1.80;99.90;;;;;;12536430;28;20098;-36
2022/03/02 23:52:02;;;;;;;18.17;9.10;;;1.80;99.90;;;;;;12538484;28;20049;-36
2022/03/02 23:58:04;;;;;;;15.30;8.18;;;1.90;99.90;;;;;;12532805;28;20959;-37
